sensor_id;sensor_type;location;lat;lon;timestamp;noise_LAeq;noise_LA_min;noise_LA_max;noise_LA01;noise_LA95
61249;Laerm;47119;49.130;9.218;2022-12-18T00:00:06;45.79;33.92;60.84;;
61249;Laerm;47119;49.130;9.218;2022-12-18T00:02:39;43.64;31.80;54.31;;
61249;Laerm;47119;49.130;9.218;2022-12-18T00:05:07;43.32;33.12;56.54;;
61249;Laerm;47119;49.130;9.218;2022-12-18T00:07:36;46.35;30.19;58.08;;
61249;Laerm;47119;49.130;9.218;2022-12-18T00:10:06;46.05;32.83;65.15;;
61249;Laerm;47119;49.130;9.218;2022-12-18T00:12:37;41.94;33.13;50.49;;
61249;Laerm;47119;49.130;9.218;2022-12-18T00:15:08;42.96;33.41;54.86;;
61249;Laerm;47119;49.130;9.218;2022-12-18T00:17:36;47.22;33.47;62.01;;
61249;Laerm;47119;49.130;9.218;2022-12-18T00:20:04;47.04;32.30;65.25;;
61249;Laerm;47119;49.130;9.218;2022-12-18T00:22:33;49.39;32.62;67.24;;
61249;Laerm;47119;49.130;9.218;2022-12-18T00:25:04;44.92;31.14;63.35;;
61249;Laerm;47119;49.130;9.218;2022-12-18T00:27:32;47.28;31.93;61.64;;
61249;Laerm;47119;49.130;9.218;2022-12-18T00:29:59;46.30;31.56;59.97;;
61249;Laerm;47119;49.130;9.218;2022-12-18T00:32:26;47.22;32.95;61.26;;
61249;Laerm;47119;49.130;9.218;2022-12-18T00:34:53;49.09;34.81;66.91;;
61249;Laerm;47119;49.130;9.218;2022-12-18T00:37:24;44.65;34.81;62.90;;
61249;Laerm;47119;49.130;9.218;2022-12-18T00:39:51;46.95;36.71;64.22;;
61249;Laerm;47119;49.130;9.218;2022-12-18T00:42:23;45.80;35.99;60.79;;
61249;Laerm;47119;49.130;9.218;2022-12-18T00:45:08;46.45;32.78;64.10;;
61249;Laerm;47119;49.130;9.218;2022-12-18T00:47:35;44.01;32.59;54.32;;
61249;Laerm;47119;49.130;9.218;2022-12-18T00:50:04;40.06;31.57;48.90;;
61249;Laerm;47119;49.130;9.218;2022-12-18T00:52:31;45.16;31.62;63.08;;
61249;Laerm;47119;49.130;9.218;2022-12-18T00:55:00;47.25;31.92;66.55;;
61249;Laerm;47119;49.130;9.218;2022-12-18T00:57:29;43.07;32.07;60.79;;
61249;Laerm;47119;49.130;9.218;2022-12-18T00:59:56;42.15;32.12;55.42;;
61249;Laerm;47119;49.130;9.218;2022-12-18T01:02:25;45.38;32.16;60.70;;
61249;Laerm;47119;49.130;9.218;2022-12-18T01:04:52;42.49;30.63;51.71;;
61249;Laerm;47119;49.130;9.218;2022-12-18T01:07:20;48.76;32.35;65.75;;
61249;Laerm;47119;49.130;9.218;2022-12-18T01:09:47;43.66;31.96;62.87;;
61249;Laerm;47119;49.130;9.218;2022-12-18T01:12:16;41.82;32.34;53.92;;
61249;Laerm;47119;49.130;9.218;2022-12-18T01:14:51;47.23;29.63;62.46;;
61249;Laerm;47119;49.130;9.218;2022-12-18T01:17:22;47.99;29.55;65.90;;
61249;Laerm;47119;49.130;9.218;2022-12-18T01:19:53;42.29;32.12;54.15;;
61249;Laerm;47119;49.130;9.218;2022-12-18T01:22:26;43.56;30.59;55.33;;
61249;Laerm;47119;49.130;9.218;2022-12-18T01:24:54;45.38;31.49;61.91;;
61249;Laerm;47119;49.130;9.218;2022-12-18T01:27:22;36.85;30.50;45.88;;
61249;Laerm;47119;49.130;9.218;2022-12-18T01:29:52;40.79;30.65;52.22;;
61249;Laerm;47119;49.130;9.218;2022-12-18T01:32:20;45.95;29.27;63.80;;
61249;Laerm;47119;49.130;9.218;2022-12-18T01:34:55;45.70;30.16;65.98;;
61249;Laerm;47119;49.130;9.218;2022-12-18T01:37:23;37.12;29.12;49.84;;
61249;Laerm;47119;49.130;9.218;2022-12-18T01:39:52;49.16;30.31;66.96;;
61249;Laerm;47119;49.130;9.218;2022-12-18T01:42:21;40.66;29.37;53.25;;
61249;Laerm;47119;49.130;9.218;2022-12-18T01:45:01;46.24;29.86;66.92;;
61249;Laerm;47119;49.130;9.218;2022-12-18T01:47:37;47.38;30.25;69.05;;
61249;Laerm;47119;49.130;9.218;2022-12-18T01:50:11;41.06;30.87;55.75;;
61249;Laerm;47119;49.130;9.218;2022-12-18T01:52:43;44.87;29.46;65.05;;
61249;Laerm;47119;49.130;9.218;2022-12-18T01:55:13;39.37;30.95;48.38;;
61249;Laerm;47119;49.130;9.218;2022-12-18T01:57:42;44.46;29.82;63.79;;
61249;Laerm;47119;49.130;9.218;2022-12-18T02:00:17;39.98;31.28;52.31;;
61249;Laerm;47119;49.130;9.218;2022-12-18T02:02:46;45.82;30.05;65.76;;
61249;Laerm;47119;49.130;9.218;2022-12-18T02:05:19;43.49;30.49;59.74;;
61249;Laerm;47119;49.130;9.218;2022-12-18T02:08:07;38.36;29.77;53.19;;
61249;Laerm;47119;49.130;9.218;2022-12-18T02:10:48;46.99;30.73;61.60;;
61249;Laerm;47119;49.130;9.218;2022-12-18T02:13:34;45.39;30.14;62.45;;
61249;Laerm;47119;49.130;9.218;2022-12-18T02:16:12;43.59;30.81;62.68;;
61249;Laerm;47119;49.130;9.218;2022-12-18T02:18:50;41.66;30.41;57.98;;
61249;Laerm;47119;49.130;9.218;2022-12-18T02:21:31;38.79;30.34;54.27;;
61249;Laerm;47119;49.130;9.218;2022-12-18T02:24:18;36.28;30.60;50.20;;
61249;Laerm;47119;49.130;9.218;2022-12-18T02:26:56;38.83;30.29;50.69;;
61249;Laerm;47119;49.130;9.218;2022-12-18T02:29:33;44.75;30.95;61.12;;
61249;Laerm;47119;49.130;9.218;2022-12-18T02:32:08;40.96;30.31;58.70;;
61249;Laerm;47119;49.130;9.218;2022-12-18T02:34:40;36.87;29.52;46.77;;
61249;Laerm;47119;49.130;9.218;2022-12-18T02:37:16;47.37;29.82;70.42;;
61249;Laerm;47119;49.130;9.218;2022-12-18T02:39:48;40.87;30.60;54.05;;
61249;Laerm;47119;49.130;9.218;2022-12-18T02:42:19;36.30;30.01;45.57;;
61249;Laerm;47119;49.130;9.218;2022-12-18T02:44:50;44.78;30.16;67.01;;
61249;Laerm;47119;49.130;9.218;2022-12-18T02:47:32;40.15;30.69;51.24;;
61249;Laerm;47119;49.130;9.218;2022-12-18T02:50:10;35.96;29.61;48.00;;
61249;Laerm;47119;49.130;9.218;2022-12-18T02:52:53;34.81;30.14;43.72;;
61249;Laerm;47119;49.130;9.218;2022-12-18T02:55:37;44.67;30.17;61.32;;
61249;Laerm;47119;49.130;9.218;2022-12-18T02:58:18;36.11;28.40;51.71;;
61249;Laerm;47119;49.130;9.218;2022-12-18T03:00:58;45.42;29.46;69.31;;
61249;Laerm;47119;49.130;9.218;2022-12-18T03:03:32;33.62;29.60;42.63;;
61249;Laerm;47119;49.130;9.218;2022-12-18T03:06:12;47.12;29.94;54.59;;
61249;Laerm;47119;49.130;9.218;2022-12-18T03:08:51;43.77;29.82;59.96;;
61249;Laerm;47119;49.130;9.218;2022-12-18T03:11:20;38.26;30.09;48.29;;
61249;Laerm;47119;49.130;9.218;2022-12-18T03:14:15;33.54;28.71;43.75;;
61249;Laerm;47119;49.130;9.218;2022-12-18T03:16:51;39.66;29.55;52.39;;
61249;Laerm;47119;49.130;9.218;2022-12-18T03:19:27;42.99;29.96;61.90;;
61249;Laerm;47119;49.130;9.218;2022-12-18T03:22:03;37.77;29.87;54.12;;
61249;Laerm;47119;49.130;9.218;2022-12-18T03:24:42;37.79;30.28;46.79;;
61249;Laerm;47119;49.130;9.218;2022-12-18T03:27:14;40.77;29.12;58.39;;
61249;Laerm;47119;49.130;9.218;2022-12-18T03:29:50;39.54;30.16;50.97;;
61249;Laerm;47119;49.130;9.218;2022-12-18T03:32:31;42.38;29.80;57.84;;
61249;Laerm;47119;49.130;9.218;2022-12-18T03:35:05;38.96;29.43;56.78;;
61249;Laerm;47119;49.130;9.218;2022-12-18T03:37:36;45.51;29.27;63.96;;
61249;Laerm;47119;49.130;9.218;2022-12-18T03:40:05;34.15;28.42;43.77;;
61249;Laerm;47119;49.130;9.218;2022-12-18T03:42:46;42.60;30.56;57.73;;
61249;Laerm;47119;49.130;9.218;2022-12-18T03:45:26;35.18;28.99;49.14;;
61249;Laerm;47119;49.130;9.218;2022-12-18T03:48:04;39.21;28.82;49.92;;
61249;Laerm;47119;49.130;9.218;2022-12-18T03:50:44;39.23;29.62;50.78;;
61249;Laerm;47119;49.130;9.218;2022-12-18T03:53:23;42.14;28.62;59.87;;
61249;Laerm;47119;49.130;9.218;2022-12-18T03:55:55;32.46;28.76;36.89;;
61249;Laerm;47119;49.130;9.218;2022-12-18T03:58:26;39.68;28.97;55.67;;
61249;Laerm;47119;49.130;9.218;2022-12-18T04:01:13;35.67;28.88;48.81;;
61249;Laerm;47119;49.130;9.218;2022-12-18T04:03:47;38.11;28.91;53.44;;
61249;Laerm;47119;49.130;9.218;2022-12-18T04:06:18;35.32;28.93;44.19;;
61249;Laerm;47119;49.130;9.218;2022-12-18T04:08:47;38.20;29.51;50.72;;
61249;Laerm;47119;49.130;9.218;2022-12-18T04:11:19;42.97;31.37;54.22;;
61249;Laerm;47119;49.130;9.218;2022-12-18T04:13:47;43.74;30.53;59.90;;
61249;Laerm;47119;49.130;9.218;2022-12-18T04:16:26;37.68;30.89;49.24;;
61249;Laerm;47119;49.130;9.218;2022-12-18T04:18:58;38.94;29.95;50.04;;
61249;Laerm;47119;49.130;9.218;2022-12-18T04:21:28;40.56;29.91;50.83;;
61249;Laerm;47119;49.130;9.218;2022-12-18T04:23:55;39.43;29.75;56.62;;
61249;Laerm;47119;49.130;9.218;2022-12-18T04:26:24;46.12;29.70;64.46;;
61249;Laerm;47119;49.130;9.218;2022-12-18T04:29:17;47.80;30.92;64.76;;
61249;Laerm;47119;49.130;9.218;2022-12-18T04:31:46;47.81;30.07;67.71;;
61249;Laerm;47119;49.130;9.218;2022-12-18T04:34:15;49.52;31.96;69.65;;
61249;Laerm;47119;49.130;9.218;2022-12-18T04:36:50;41.47;31.65;58.97;;
61249;Laerm;47119;49.130;9.218;2022-12-18T04:39:21;46.23;29.62;66.47;;
61249;Laerm;47119;49.130;9.218;2022-12-18T04:41:50;38.96;29.53;50.01;;
61249;Laerm;47119;49.130;9.218;2022-12-18T04:44:20;49.91;30.36;65.79;;
61249;Laerm;47119;49.130;9.218;2022-12-18T04:46:52;38.24;29.50;49.04;;
61249;Laerm;47119;49.130;9.218;2022-12-18T04:49:50;44.51;29.75;62.71;;
61249;Laerm;47119;49.130;9.218;2022-12-18T04:52:17;36.62;28.83;48.24;;
61249;Laerm;47119;49.130;9.218;2022-12-18T04:54:44;35.91;29.79;47.42;;
61249;Laerm;47119;49.130;9.218;2022-12-18T04:57:31;38.38;29.02;49.70;;
61249;Laerm;47119;49.130;9.218;2022-12-18T05:00:29;43.74;29.36;62.65;;
61249;Laerm;47119;49.130;9.218;2022-12-18T05:03:02;37.71;28.80;52.25;;
61249;Laerm;47119;49.130;9.218;2022-12-18T05:05:42;48.51;30.48;66.27;;
61249;Laerm;47119;49.130;9.218;2022-12-18T05:08:09;38.76;29.98;53.25;;
61249;Laerm;47119;49.130;9.218;2022-12-18T05:10:41;39.09;29.60;54.60;;
61249;Laerm;47119;49.130;9.218;2022-12-18T05:13:11;38.41;29.65;50.51;;
61249;Laerm;47119;49.130;9.218;2022-12-18T05:15:51;46.45;29.54;66.37;;
61249;Laerm;47119;49.130;9.218;2022-12-18T05:18:28;36.96;28.98;53.55;;
61249;Laerm;47119;49.130;9.218;2022-12-18T05:21:00;42.80;29.30;61.07;;
61249;Laerm;47119;49.130;9.218;2022-12-18T05:23:31;38.94;30.80;46.97;;
61249;Laerm;47119;49.130;9.218;2022-12-18T05:26:05;38.95;30.78;50.71;;
61249;Laerm;47119;49.130;9.218;2022-12-18T05:28:35;36.58;30.39;48.21;;
61249;Laerm;47119;49.130;9.218;2022-12-18T05:31:04;48.19;30.67;67.29;;
61249;Laerm;47119;49.130;9.218;2022-12-18T05:33:35;40.48;30.09;55.82;;
61249;Laerm;47119;49.130;9.218;2022-12-18T05:36:05;33.71;28.89;46.88;;
61249;Laerm;47119;49.130;9.218;2022-12-18T05:38:38;47.76;30.51;64.73;;
61249;Laerm;47119;49.130;9.218;2022-12-18T05:41:06;47.81;31.76;66.56;;
61249;Laerm;47119;49.130;9.218;2022-12-18T05:43:37;45.14;31.50;64.11;;
61249;Laerm;47119;49.130;9.218;2022-12-18T05:46:06;38.91;29.33;53.36;;
61249;Laerm;47119;49.130;9.218;2022-12-18T05:48:35;41.22;29.67;55.94;;
61249;Laerm;47119;49.130;9.218;2022-12-18T05:51:07;39.73;30.40;54.59;;
61249;Laerm;47119;49.130;9.218;2022-12-18T05:53:36;39.30;29.52;50.74;;
61249;Laerm;47119;49.130;9.218;2022-12-18T05:56:12;38.22;29.64;48.35;;
61249;Laerm;47119;49.130;9.218;2022-12-18T05:58:42;32.73;28.65;42.13;;
61249;Laerm;47119;49.130;9.218;2022-12-18T06:01:13;39.57;29.22;50.84;;
61249;Laerm;47119;49.130;9.218;2022-12-18T06:03:43;38.50;28.96;48.31;;
61249;Laerm;47119;49.130;9.218;2022-12-18T06:06:15;44.42;29.03;63.07;;
61249;Laerm;47119;49.130;9.218;2022-12-18T06:08:43;36.27;30.31;47.50;;
61249;Laerm;47119;49.130;9.218;2022-12-18T06:11:11;45.90;30.59;62.52;;
61249;Laerm;47119;49.130;9.218;2022-12-18T06:13:50;38.03;30.47;47.54;;
61249;Laerm;47119;49.130;9.218;2022-12-18T06:16:24;35.07;28.66;51.45;;
61249;Laerm;47119;49.130;9.218;2022-12-18T06:19:30;45.51;29.45;65.67;;
61249;Laerm;47119;49.130;9.218;2022-12-18T06:22:18;45.36;29.70;65.23;;
61249;Laerm;47119;49.130;9.218;2022-12-18T06:24:56;41.66;29.27;59.57;;
61249;Laerm;47119;49.130;9.218;2022-12-18T06:27:27;37.68;29.10;53.07;;
61249;Laerm;47119;49.130;9.218;2022-12-18T06:30:15;33.95;29.85;44.37;;
61249;Laerm;47119;49.130;9.218;2022-12-18T06:32:55;39.97;29.67;56.79;;
61249;Laerm;47119;49.130;9.218;2022-12-18T06:35:41;43.96;29.78;63.23;;
61249;Laerm;47119;49.130;9.218;2022-12-18T06:38:19;36.19;30.07;55.51;;
61249;Laerm;47119;49.130;9.218;2022-12-18T06:40:55;44.13;30.65;63.83;;
61249;Laerm;47119;49.130;9.218;2022-12-18T06:43:35;37.19;29.80;48.77;;
61249;Laerm;47119;49.130;9.218;2022-12-18T06:46:22;39.80;30.85;56.63;;
61249;Laerm;47119;49.130;9.218;2022-12-18T06:49:15;40.92;31.18;51.90;;
61249;Laerm;47119;49.130;9.218;2022-12-18T06:51:50;38.16;31.10;47.24;;
61249;Laerm;47119;49.130;9.218;2022-12-18T06:54:42;43.60;32.43;60.47;;
61249;Laerm;47119;49.130;9.218;2022-12-18T06:57:19;44.69;32.10;64.31;;
61249;Laerm;47119;49.130;9.218;2022-12-18T07:00:14;49.78;31.81;69.98;;
61249;Laerm;47119;49.130;9.218;2022-12-18T07:02:46;44.21;32.21;57.47;;
61249;Laerm;47119;49.130;9.218;2022-12-18T07:05:13;40.56;30.87;54.16;;
61249;Laerm;47119;49.130;9.218;2022-12-18T07:08:02;38.00;31.22;48.64;;
61249;Laerm;47119;49.130;9.218;2022-12-18T07:10:42;40.54;31.33;50.52;;
61249;Laerm;47119;49.130;9.218;2022-12-18T07:13:12;41.92;32.03;52.58;;
61249;Laerm;47119;49.130;9.218;2022-12-18T07:16:09;47.05;31.17;63.69;;
61249;Laerm;47119;49.130;9.218;2022-12-18T07:18:43;43.88;32.59;60.39;;
61249;Laerm;47119;49.130;9.218;2022-12-18T07:21:17;46.87;33.29;63.05;;
61249;Laerm;47119;49.130;9.218;2022-12-18T07:23:56;46.48;30.89;64.95;;
61249;Laerm;47119;49.130;9.218;2022-12-18T07:26:28;46.32;31.03;67.07;;
61249;Laerm;47119;49.130;9.218;2022-12-18T07:28:57;42.08;32.03;56.46;;
61249;Laerm;47119;49.130;9.218;2022-12-18T07:31:45;47.65;31.49;64.77;;
61249;Laerm;47119;49.130;9.218;2022-12-18T07:34:13;42.37;31.57;57.69;;
61249;Laerm;47119;49.130;9.218;2022-12-18T07:36:44;45.85;31.93;61.44;;
61249;Laerm;47119;49.130;9.218;2022-12-18T07:39:19;48.46;32.40;66.01;;
61249;Laerm;47119;49.130;9.218;2022-12-18T07:41:48;47.56;31.51;62.73;;
61249;Laerm;47119;49.130;9.218;2022-12-18T07:44:39;46.72;31.58;63.45;;
61249;Laerm;47119;49.130;9.218;2022-12-18T07:47:09;41.15;32.41;48.79;;
61249;Laerm;47119;49.130;9.218;2022-12-18T07:49:36;42.08;32.97;52.13;;
61249;Laerm;47119;49.130;9.218;2022-12-18T07:52:15;45.57;32.58;61.06;;
61249;Laerm;47119;49.130;9.218;2022-12-18T07:54:57;46.11;33.67;62.49;;
61249;Laerm;47119;49.130;9.218;2022-12-18T07:57:24;50.79;33.23;70.34;;
61249;Laerm;47119;49.130;9.218;2022-12-18T07:59:54;42.05;32.15;56.03;;
61249;Laerm;47119;49.130;9.218;2022-12-18T08:02:30;43.19;34.50;53.67;;
61249;Laerm;47119;49.130;9.218;2022-12-18T08:05:00;48.18;33.51;64.71;;
61249;Laerm;47119;49.130;9.218;2022-12-18T08:07:30;49.36;35.07;69.62;;
61249;Laerm;47119;49.130;9.218;2022-12-18T08:10:01;49.70;31.01;66.33;;
61249;Laerm;47119;49.130;9.218;2022-12-18T08:12:28;46.27;33.52;64.68;;
61249;Laerm;47119;49.130;9.218;2022-12-18T08:15:00;41.24;30.92;53.62;;
61249;Laerm;47119;49.130;9.218;2022-12-18T08:17:37;46.08;30.89;61.85;;
61249;Laerm;47119;49.130;9.218;2022-12-18T08:20:10;47.85;31.32;66.54;;
61249;Laerm;47119;49.130;9.218;2022-12-18T08:23:30;48.79;33.11;64.71;;
61249;Laerm;47119;49.130;9.218;2022-12-18T08:26:46;47.81;33.26;65.03;;
61249;Laerm;47119;49.130;9.218;2022-12-18T08:29:24;45.70;33.72;62.64;;
61249;Laerm;47119;49.130;9.218;2022-12-18T08:31:51;52.12;35.64;72.00;;
61249;Laerm;47119;49.130;9.218;2022-12-18T08:34:33;52.05;42.07;64.95;;
61249;Laerm;47119;49.130;9.218;2022-12-18T08:37:00;46.60;32.51;58.79;;
61249;Laerm;47119;49.130;9.218;2022-12-18T08:39:38;54.61;34.14;74.44;;
61249;Laerm;47119;49.130;9.218;2022-12-18T08:42:10;43.69;32.83;54.27;;
61249;Laerm;47119;49.130;9.218;2022-12-18T08:45:06;46.24;33.29;59.88;;
61249;Laerm;47119;49.130;9.218;2022-12-18T08:47:54;49.32;33.11;65.88;;
61249;Laerm;47119;49.130;9.218;2022-12-18T08:50:22;43.49;33.10;52.43;;
61249;Laerm;47119;49.130;9.218;2022-12-18T08:53:56;50.67;34.46;67.94;;
61249;Laerm;47119;49.130;9.218;2022-12-18T08:56:20;51.95;33.75;68.88;;
61249;Laerm;47119;49.130;9.218;2022-12-18T08:59:36;56.92;38.33;72.31;;
61249;Laerm;47119;49.130;9.218;2022-12-18T09:03:11;57.17;49.59;67.20;;
61249;Laerm;47119;49.130;9.218;2022-12-18T09:05:59;57.12;38.80;68.05;;
61249;Laerm;47119;49.130;9.218;2022-12-18T09:08:38;51.35;36.80;65.56;;
61249;Laerm;47119;49.130;9.218;2022-12-18T09:11:22;45.92;37.88;65.96;;
61249;Laerm;47119;49.130;9.218;2022-12-18T09:13:50;49.99;33.88;65.41;;
61249;Laerm;47119;49.130;9.218;2022-12-18T09:16:20;56.27;37.75;85.49;;
61249;Laerm;47119;49.130;9.218;2022-12-18T09:18:50;46.89;33.97;65.18;;
61249;Laerm;47119;49.130;9.218;2022-12-18T09:21:34;48.13;34.53;62.89;;
61249;Laerm;47119;49.130;9.218;2022-12-18T09:24:35;50.33;32.98;67.71;;
61249;Laerm;47119;49.130;9.218;2022-12-18T09:27:04;46.50;32.19;62.53;;
61249;Laerm;47119;49.130;9.218;2022-12-18T09:29:45;50.82;34.49;64.75;;
61249;Laerm;47119;49.130;9.218;2022-12-18T09:33:04;51.20;34.50;65.99;;
61249;Laerm;47119;49.130;9.218;2022-12-18T09:39:35;48.57;35.48;63.80;;
61249;Laerm;47119;49.130;9.218;2022-12-18T09:43:04;49.04;35.00;66.23;;
61249;Laerm;47119;49.130;9.218;2022-12-18T09:46:23;51.98;33.25;69.39;;
61249;Laerm;47119;49.130;9.218;2022-12-18T09:49:49;51.12;32.87;66.79;;
61249;Laerm;47119;49.130;9.218;2022-12-18T09:53:17;52.73;34.35;69.92;;
61249;Laerm;47119;49.130;9.218;2022-12-18T09:56:01;51.71;37.52;68.15;;
61249;Laerm;47119;49.130;9.218;2022-12-18T09:58:58;50.21;37.22;66.15;;
61249;Laerm;47119;49.130;9.218;2022-12-18T10:02:18;50.56;35.90;64.67;;
61249;Laerm;47119;49.130;9.218;2022-12-18T10:05:05;53.17;38.86;69.09;;
61249;Laerm;47119;49.130;9.218;2022-12-18T10:08:04;49.34;33.77;62.87;;
61249;Laerm;47119;49.130;9.218;2022-12-18T10:11:00;45.13;34.80;55.62;;
61249;Laerm;47119;49.130;9.218;2022-12-18T10:14:17;47.64;33.61;65.47;;
61249;Laerm;47119;49.130;9.218;2022-12-18T10:17:54;50.40;34.12;69.73;;
61249;Laerm;47119;49.130;9.218;2022-12-18T10:21:15;55.02;35.67;72.82;;
61249;Laerm;47119;49.130;9.218;2022-12-18T10:24:14;47.97;34.80;63.02;;
61249;Laerm;47119;49.130;9.218;2022-12-18T10:27:14;53.87;36.63;78.75;;
61249;Laerm;47119;49.130;9.218;2022-12-18T10:29:49;52.06;42.14;79.62;;
61249;Laerm;47119;49.130;9.218;2022-12-18T10:32:22;50.70;38.71;69.94;;
61249;Laerm;47119;49.130;9.218;2022-12-18T10:34:58;53.20;40.27;67.30;;
61249;Laerm;47119;49.130;9.218;2022-12-18T10:37:29;51.50;38.28;69.02;;
61249;Laerm;47119;49.130;9.218;2022-12-18T10:40:10;49.37;38.06;66.93;;
61249;Laerm;47119;49.130;9.218;2022-12-18T10:42:40;50.97;39.58;64.56;;
61249;Laerm;47119;49.130;9.218;2022-12-18T10:45:35;50.21;39.44;62.94;;
61249;Laerm;47119;49.130;9.218;2022-12-18T10:48:19;48.42;38.49;62.78;;
61249;Laerm;47119;49.130;9.218;2022-12-18T10:51:22;49.70;38.21;62.69;;
61249;Laerm;47119;49.130;9.218;2022-12-18T10:54:14;51.84;40.55;67.89;;
61249;Laerm;47119;49.130;9.218;2022-12-18T10:56:44;54.06;39.26;70.45;;
61249;Laerm;47119;49.130;9.218;2022-12-18T10:59:14;55.00;38.76;68.35;;
61249;Laerm;47119;49.130;9.218;2022-12-18T11:01:51;51.56;38.41;67.03;;
61249;Laerm;47119;49.130;9.218;2022-12-18T11:04:24;49.46;36.23;64.71;;
61249;Laerm;47119;49.130;9.218;2022-12-18T11:06:56;50.37;33.64;64.49;;
61249;Laerm;47119;49.130;9.218;2022-12-18T11:09:27;55.41;35.96;77.63;;
61249;Laerm;47119;49.130;9.218;2022-12-18T11:11:57;48.11;33.48;61.47;;
61249;Laerm;47119;49.130;9.218;2022-12-18T11:14:28;50.66;36.99;68.27;;
61249;Laerm;47119;49.130;9.218;2022-12-18T11:17:00;51.98;35.70;69.47;;
61249;Laerm;47119;49.130;9.218;2022-12-18T11:19:34;50.03;34.76;64.58;;
61249;Laerm;47119;49.130;9.218;2022-12-18T11:22:19;49.31;38.81;64.86;;
61249;Laerm;47119;49.130;9.218;2022-12-18T11:24:56;51.69;35.85;67.38;;
61249;Laerm;47119;49.130;9.218;2022-12-18T11:27:27;50.95;37.93;65.32;;
61249;Laerm;47119;49.130;9.218;2022-12-18T11:30:08;52.95;39.88;65.51;;
61249;Laerm;47119;49.130;9.218;2022-12-18T11:32:41;54.16;37.91;71.36;;
61249;Laerm;47119;49.130;9.218;2022-12-18T11:35:19;52.69;37.43;66.16;;
61249;Laerm;47119;49.130;9.218;2022-12-18T11:37:54;54.46;40.35;78.53;;
61249;Laerm;47119;49.130;9.218;2022-12-18T11:40:30;58.22;37.49;78.22;;
61249;Laerm;47119;49.130;9.218;2022-12-18T11:43:10;51.67;35.80;66.53;;
61249;Laerm;47119;49.130;9.218;2022-12-18T11:45:48;49.89;33.96;66.12;;
61249;Laerm;47119;49.130;9.218;2022-12-18T11:48:23;51.29;38.12;66.58;;
61249;Laerm;47119;49.130;9.218;2022-12-18T11:50:54;49.04;36.01;65.53;;
61249;Laerm;47119;49.130;9.218;2022-12-18T11:53:23;53.20;35.92;68.38;;
61249;Laerm;47119;49.130;9.218;2022-12-18T11:56:07;51.23;36.49;67.52;;
61249;Laerm;47119;49.130;9.218;2022-12-18T11:59:00;49.58;34.74;67.58;;
61249;Laerm;47119;49.130;9.218;2022-12-18T12:01:46;50.72;35.59;63.00;;
61249;Laerm;47119;49.130;9.218;2022-12-18T12:04:40;52.05;36.03;65.80;;
61249;Laerm;47119;49.130;9.218;2022-12-18T12:07:26;50.66;39.08;64.69;;
61249;Laerm;47119;49.130;9.218;2022-12-18T12:10:13;52.88;36.20;65.30;;
61249;Laerm;47119;49.130;9.218;2022-12-18T12:13:01;52.87;38.17;65.36;;
61249;Laerm;47119;49.130;9.218;2022-12-18T12:15:44;49.27;38.60;65.71;;
61249;Laerm;47119;49.130;9.218;2022-12-18T12:18:31;54.19;37.62;72.62;;
61249;Laerm;47119;49.130;9.218;2022-12-18T12:21:16;46.38;33.46;57.34;;
61249;Laerm;47119;49.130;9.218;2022-12-18T12:23:56;50.78;35.96;67.55;;
61249;Laerm;47119;49.130;9.218;2022-12-18T12:26:38;48.34;35.42;62.09;;
61249;Laerm;47119;49.130;9.218;2022-12-18T12:30:09;52.18;39.04;67.00;;
61249;Laerm;47119;49.130;9.218;2022-12-18T12:33:18;50.83;36.49;66.23;;
61249;Laerm;47119;49.130;9.218;2022-12-18T12:36:03;48.97;39.31;63.11;;
61249;Laerm;47119;49.130;9.218;2022-12-18T12:38:42;53.46;41.80;68.00;;
61249;Laerm;47119;49.130;9.218;2022-12-18T12:41:14;53.69;41.15;68.49;;
61249;Laerm;47119;49.130;9.218;2022-12-18T12:44:02;50.67;37.52;65.52;;
61249;Laerm;47119;49.130;9.218;2022-12-18T12:46:37;49.66;37.16;61.74;;
61249;Laerm;47119;49.130;9.218;2022-12-18T12:49:14;53.47;39.69;66.90;;
61249;Laerm;47119;49.130;9.218;2022-12-18T12:51:45;54.10;39.65;66.64;;
61249;Laerm;47119;49.130;9.218;2022-12-18T12:54:18;55.26;41.54;80.84;;
61249;Laerm;47119;49.130;9.218;2022-12-18T12:56:51;53.83;40.60;66.75;;
61249;Laerm;47119;49.130;9.218;2022-12-18T12:59:34;52.18;41.25;66.65;;
61249;Laerm;47119;49.130;9.218;2022-12-18T13:02:31;60.99;37.73;87.59;;
61249;Laerm;47119;49.130;9.218;2022-12-18T13:05:45;51.47;38.27;67.05;;
61249;Laerm;47119;49.130;9.218;2022-12-18T13:08:32;51.74;37.29;66.70;;
61249;Laerm;47119;49.130;9.218;2022-12-18T13:20:38;52.68;34.68;68.94;;
61249;Laerm;47119;49.130;9.218;2022-12-18T13:23:38;55.53;37.85;76.36;;
61249;Laerm;47119;49.130;9.218;2022-12-18T13:26:33;51.84;37.32;68.17;;
61249;Laerm;47119;49.130;9.218;2022-12-18T13:29:06;50.11;36.22;64.51;;
61249;Laerm;47119;49.130;9.218;2022-12-18T13:31:59;52.79;35.36;67.03;;
61249;Laerm;47119;49.130;9.218;2022-12-18T13:34:47;54.18;35.55;77.43;;
61249;Laerm;47119;49.130;9.218;2022-12-18T13:37:44;52.58;37.34;69.44;;
61249;Laerm;47119;49.130;9.218;2022-12-18T13:40:57;50.45;33.28;64.41;;
61249;Laerm;47119;49.130;9.218;2022-12-18T13:43:42;51.85;38.01;66.90;;
61249;Laerm;47119;49.130;9.218;2022-12-18T13:46:44;51.55;39.67;68.19;;
61249;Laerm;47119;49.130;9.218;2022-12-18T13:49:24;52.27;39.29;67.19;;
61249;Laerm;47119;49.130;9.218;2022-12-18T13:51:59;52.27;37.97;63.75;;
61249;Laerm;47119;49.130;9.218;2022-12-18T13:54:45;51.60;33.83;66.78;;
61249;Laerm;47119;49.130;9.218;2022-12-18T13:57:27;51.38;38.64;66.88;;
61249;Laerm;47119;49.130;9.218;2022-12-18T14:00:24;47.18;37.75;56.32;;
61249;Laerm;47119;49.130;9.218;2022-12-18T14:03:22;50.21;35.59;64.97;;
61249;Laerm;47119;49.130;9.218;2022-12-18T14:06:07;47.69;36.52;61.22;;
61249;Laerm;47119;49.130;9.218;2022-12-18T14:08:44;50.60;39.13;66.22;;
61249;Laerm;47119;49.130;9.218;2022-12-18T14:11:23;51.30;39.78;64.39;;
61249;Laerm;47119;49.130;9.218;2022-12-18T14:13:58;53.72;39.47;66.73;;
61249;Laerm;47119;49.130;9.218;2022-12-18T14:16:30;51.66;35.61;70.86;;
61249;Laerm;47119;49.130;9.218;2022-12-18T14:19:10;49.74;38.75;65.40;;
61249;Laerm;47119;49.130;9.218;2022-12-18T14:21:58;52.24;36.81;65.69;;
61249;Laerm;47119;49.130;9.218;2022-12-18T14:24:36;51.87;37.12;70.03;;
61249;Laerm;47119;49.130;9.218;2022-12-18T14:31:42;54.09;38.44;70.73;;
61249;Laerm;47119;49.130;9.218;2022-12-18T14:35:18;52.42;37.54;69.27;;
61249;Laerm;47119;49.130;9.218;2022-12-18T14:37:50;52.41;39.94;68.39;;
61249;Laerm;47119;49.130;9.218;2022-12-18T14:40:21;51.74;39.43;64.05;;
61249;Laerm;47119;49.130;9.218;2022-12-18T14:43:11;50.57;39.40;62.05;;
61249;Laerm;47119;49.130;9.218;2022-12-18T14:45:46;52.01;39.16;68.10;;
61249;Laerm;47119;49.130;9.218;2022-12-18T14:48:21;48.57;35.52;66.51;;
61249;Laerm;47119;49.130;9.218;2022-12-18T14:51:15;53.02;38.84;69.37;;
61249;Laerm;47119;49.130;9.218;2022-12-18T14:53:54;51.43;39.85;63.57;;
61249;Laerm;47119;49.130;9.218;2022-12-18T14:56:27;54.14;38.67;71.31;;
61249;Laerm;47119;49.130;9.218;2022-12-18T14:59:05;53.67;40.36;67.05;;
61249;Laerm;47119;49.130;9.218;2022-12-18T15:02:10;53.31;37.80;67.61;;
61249;Laerm;47119;49.130;9.218;2022-12-18T15:05:01;51.57;38.02;67.41;;
61249;Laerm;47119;49.130;9.218;2022-12-18T15:07:41;49.94;36.52;63.59;;
61249;Laerm;47119;49.130;9.218;2022-12-18T15:10:17;51.93;40.43;66.22;;